Latest Weather Observations for Nuriootpa

IDS60901

Issued at 9:41 pm CST Friday 29 May 2015 (issued every 10 minutes, with the page automatically refreshed every 10 minutes)

About weather observations | Map of Adelaide area stations | Latest observations for Adelaide area | Other Formats
Station Details ID: 023373 Name: NURIOOTPA VITICULTURAL Lat: -34.48 Lon: 139.01 Height: 275.0 m
Data from the previous 72 hours. | See also: Recent months at Nuriootpa
Date/Time
CST
Tmp

°C
App
Tmp
°C
Dew
Point
°C
Rel
Hum
%
Delta-T

°C
Wind Press
QNH
hPa
Press
MSL
hPa
Rain
since
9 am
mm
Dir
 
Spd
km/h
Gust
km/h
Spd
kts
Gust
kts
29/09:30pm 9.2 7.8 7.3 88 0.9 W 4 6 2 3 1024.6 1024.6 0.0
29/09:00pm 10.7 9.0 7.6 81 1.5 W 6 7 3 4 1024.6 1024.6 0.0
29/08:30pm 10.9 9.0 7.4 79 1.7 WSW 7 11 4 6 1024.6 1024.6 0.0
29/08:00pm 10.9 8.9 7.2 78 1.8 W 7 9 4 5 1024.6 1024.6 0.0
29/07:30pm 11.0 8.9 6.8 75 2.0 WSW 7 9 4 5 1024.3 1024.3 0.0
29/07:00pm 11.5 9.1 6.9 73 2.2 SW 9 11 5 6 1023.9 1023.9 0.0
29/06:30pm 12.0 9.6 6.8 70 2.5 WSW 9 13 5 7 1023.9 1023.9 0.0
29/06:00pm 12.4 9.5 6.6 68 2.8 W 11 15 6 8 1023.8 1023.8 0.0
29/05:30pm 12.7 10.2 6.7 67 2.9 W 9 13 5 7 1023.8 1023.8 0.0
29/05:00pm 12.9 9.9 6.2 64 3.2 WSW 11 17 6 9 1023.4 1023.4 0.0
29/04:30pm 13.3 9.9 5.7 60 3.6 W 13 17 7 9 1023.5 1023.5 0.0
29/04:00pm 14.0 10.6 5.9 58 3.9 W 13 17 7 9 1023.2 1023.2 0.0
29/03:30pm 14.1 10.1 5.0 54 4.3 W 15 20 8 11 1023.3 1023.3 0.0
29/03:00pm 14.6 10.2 4.6 51 4.7 W 17 24 9 13 1023.2 1023.2 0.0
29/02:30pm 13.7 9.5 5.7 58 3.8 WSW 17 22 9 12 1023.2 1023.2 0.0
29/02:00pm 13.8 9.6 5.6 57 3.9 W 17 28 9 15 1023.5 1023.5 0.0
29/01:30pm 13.7 9.6 6.0 59 3.7 WSW 17 24 9 13 1023.5 1023.5 0.0
29/01:00pm 13.7 9.7 5.0 55 4.1 W 15 24 8 13 1023.8 1023.8 0.0
29/12:30pm 13.4 9.6 5.9 60 3.6 W 15 20 8 11 1023.9 1023.9 0.0
29/12:00pm 13.9 9.9 4.7 54 4.3 WNW 15 28 8 15 1024.4 1024.4 0.0
29/11:30am 13.7 9.7 6.7 62 3.4 WSW 17 22 9 12 1024.3 1024.3 0.0
29/11:00am 13.5 9.5 6.7 63 3.3 W 17 20 9 11 1024.2 1024.2 0.0
29/10:30am 12.8 8.5 6.8 67 2.9 WSW 19 26 10 14 1024.2 1024.2 0.0
29/10:00am 12.8 9.8 9.1 78 1.9 W 15 20 8 11 1024.6 1024.6 0.0
29/09:30am 12.5 9.6 9.8 83 1.4 WNW 15 20 8 11 1024.8 1024.9 0.0
29/09:00am 11.5 9.3 9.3 86 1.1 WNW 11 17 6 9 1024.6 1024.6 1.2
29/08:30am 11.1 9.2 8.9 86 1.1 W 9 13 5 7 1024.1 1024.1 1.2
29/08:00am 10.9 9.3 8.9 87 1.0 WNW 7 9 4 5 1023.9 1023.9 1.2
29/07:30am 10.5 8.9 8.9 90 0.8 W 7 11 4 6 1023.7 1023.7 1.2
29/07:00am 10.6 8.5 9.6 93 0.5 WNW 11 17 6 9 1023.7 1023.7 1.2
29/06:30am 10.6 8.5 9.8 95 0.4 W 11 17 6 9 1023.4 1023.4 1.2
29/06:00am 10.5 8.1 9.9 96 0.3 W 13 17 7 9 1023.1 1023.1 1.2
29/05:30am 10.5 8.4 9.7 95 0.4 W 11 15 6 8 1022.8 1022.8 1.2
29/05:00am 10.5 8.8 9.9 96 0.3 W 9 13 5 7 1022.6 1022.6 1.2
29/04:30am 10.6 8.9 9.8 95 0.4 WNW 9 13 5 7 1022.2 1022.2 1.2
29/04:00am 10.4 8.7 9.8 96 0.3 WNW 9 13 5 7 1022.4 1022.4 1.2
29/03:30am 10.4 8.3 9.8 96 0.3 WNW 11 13 6 7 1022.1 1022.1 1.2
29/03:00am 10.2 8.1 9.6 96 0.3 W 11 13 6 7 1022.1 1022.1 1.2
29/02:30am 10.8 8.3 9.8 93 0.5 W 13 15 7 8 1021.9 1021.9 1.2
29/02:00am 11.1 9.1 10.3 95 0.4 WNW 11 15 6 8 1022.2 1022.2 1.2
29/01:30am 11.1 9.0 9.9 92 0.6 W 11 13 6 7 1022.2 1022.2 1.2
29/01:00am 11.0 9.4 10.2 95 0.4 W 9 13 5 7 1022.0 1022.0 1.2
29/12:30am 10.9 9.3 10.1 95 0.4 WNW 9 13 5 7 1022.1 1022.1 1.2
29/12:00am 10.8 8.8 10.0 95 0.4 W 11 15 6 8 1021.9 1021.9 1.2
 
Date/Time
CST
Tmp

°C
App
Tmp
°C
Dew
Point
°C
Rel
Hum
%
Delta-T

°C
Wind Press
QNH
hPa
Press
MSL
hPa
Rain
since
9 am
mm
Dir
 
Spd
km/h
Gust
km/h
Spd
kts
Gust
kts
28/11:30pm 11.1 7.7 10.5 96 0.3 WSW 19 26 10 14 1022.0 1022.0 1.0
28/11:00pm 11.7 9.2 10.9 95 0.4 W 15 22 8 12 1021.9 1021.9 0.2
28/10:30pm 11.8 9.7 11.0 95 0.4 W 13 17 7 9 1021.9 1021.9 0.0
28/10:00pm 11.8 10.0 11.0 95 0.4 WSW 11 19 6 10 1021.4 1021.4 0.0
28/09:30pm 11.9 9.4 11.0 94 0.5 W 15 19 8 10 1021.5 1021.5 0.0
28/09:00pm 11.8 10.3 10.7 93 0.6 W 9 17 5 9 1021.0 1021.0 0.0
28/08:30pm 11.8 10.3 10.5 92 0.7 W 9 13 5 7 1020.8 1020.8 0.0
28/08:00pm 11.8 9.5 10.3 90 0.8 WSW 13 17 7 9 1020.4 1020.4 0.0
28/07:30pm 11.9 9.5 10.2 89 0.9 WSW 13 19 7 10 1020.4 1020.4 0.0
28/07:00pm 11.7 9.3 10.2 90 0.8 WSW 13 19 7 10 1020.2 1020.2 0.0
28/06:30pm 12.0 7.9 10.1 88 1.0 WSW 22 35 12 19 1020.1 1020.1 0.0
28/06:12pm 12.5 6.9 10.0 85 1.3 WSW 30 50 16 27 1019.9 1019.9 0.0
28/06:00pm 13.6 10.3 9.5 76 2.1 W 17 28 9 15 1019.5 1019.5 0.0
28/05:30pm 13.9 10.9 9.2 73 2.4 W 15 22 8 12 1019.2 1019.2 0.0
28/05:00pm 14.5 10.6 8.6 67 3.0 W 19 28 10 15 1018.9 1018.9 0.0
28/04:30pm 15.2 11.2 8.3 63 3.5 W 19 32 10 17 1018.5 1018.4 0.0
28/04:00pm 15.6 10.2 7.9 60 3.9 W 26 39 14 21 1018.2 1018.1 0.0
28/03:30pm 16.5 10.6 7.6 55 4.5 W 28 41 15 22 1017.8 1017.8 0.0
28/03:03pm 17.0 10.7 7.6 54 4.8 W 30 48 16 26 1017.8 1017.8 0.0
28/03:00pm 17.0 10.4 7.6 54 4.8 W 32 48 17 26 1017.8 1017.8 0.0
28/02:53pm 17.1 10.8 7.2 52 5.0 W 30 48 16 26 1017.7 1017.7 0.0
28/02:30pm 17.3 11.4 7.5 52 5.0 W 28 41 15 22 1017.7 1017.7 0.0
28/02:00pm 17.0 10.4 7.6 54 4.8 WNW 32 44 17 24 1017.6 1017.6 0.0
28/01:30pm 17.2 10.8 7.1 51 5.1 W 30 44 16 24 1018.1 1018.0 0.0
28/01:00pm 17.6 11.2 8.6 55 4.7 WNW 32 50 17 27 1018.4 1018.3 0.0
28/12:30pm 17.2 12.0 9.0 58 4.3 WNW 26 37 14 20 1018.6 1018.6 0.0
28/12:00pm 16.9 11.7 8.8 59 4.2 WNW 26 39 14 21 1018.8 1018.8 0.0
28/11:30am 16.2 11.9 9.5 64 3.5 WNW 22 32 12 17 1019.2 1019.2 0.0
28/11:00am 15.6 11.9 10.3 70 2.8 NW 20 28 11 15 1019.6 1019.6 0.0
28/10:30am 14.9 11.8 10.4 74 2.4 NW 17 26 9 14 1019.9 1019.9 0.0
28/10:00am 14.4 12.0 11.4 82 1.6 NW 15 22 8 12 1020.2 1020.2 0.0
28/09:30am 13.2 11.9 11.3 88 1.0 WNW 9 17 5 9 1020.0 1020.0 0.0
28/09:00am 11.3 10.4 9.3 87 1.0 ENE 4 7 2 4 1019.8 1019.8 0.0
28/08:30am 9.2 7.4 7.8 91 0.7 NE 7 9 4 5 1019.7 1019.7 0.0
28/08:00am 7.2 5.1 6.8 97 0.2 NE 7 9 4 5 1019.6 1019.6 0.0
28/07:30am 5.7 3.5 5.2 97 0.2 ENE 6 9 3 5 1019.4 1019.4 0.0
28/07:00am 5.5 3.3 5.3 99 0.1 NE 6 9 3 5 1019.4 1019.4 0.0
28/06:30am 4.7 2.7 4.2 97 0.2 ENE 4 6 2 3 1019.3 1019.3 0.0
28/06:00am 4.7 2.3 4.5 99 0.1 E 6 7 3 4 1018.6 1018.6 0.0
28/05:30am 5.1 2.8 4.6 97 0.2 ENE 6 7 3 4 1018.4 1018.3 0.0
28/05:00am 5.3 3.0 4.6 95 0.3 E 6 7 3 4 1018.3 1018.2 0.0
28/04:30am 5.3 3.0 4.8 97 0.2 ENE 6 7 3 4 1018.4 1018.3 0.0
28/04:00am 5.0 2.6 4.5 97 0.2 E 6 7 3 4 1018.2 1018.1 0.0
28/03:30am 5.3 3.1 5.1 99 0.1 ENE 6 7 3 4 1018.5 1018.4 0.0
28/03:00am 5.3 2.4 4.8 97 0.2 NE 9 11 5 6 1018.3 1018.2 0.0
28/02:30am 5.5 3.0 5.0 97 0.2 ENE 7 9 4 5 1018.3 1018.2 0.0
28/02:00am 5.6 3.2 5.4 99 0.1 NE 7 9 4 5 1018.9 1018.9 0.0
28/01:30am 5.4 3.5 4.9 97 0.2 NE 4 6 2 3 1018.9 1018.9 0.0
28/01:00am 6.0 3.7 5.6 97 0.2 NE 7 9 4 5 1018.7 1018.7 0.0
28/12:30am 5.9 3.6 5.5 97 0.2 NE 7 7 4 4 1019.0 1019.0 0.0
28/12:00am 6.0 3.9 5.8 99 0.1 NE 6 7 3 4 1019.2 1019.2 0.0
 
Date/Time
CST
Tmp

°C
App
Tmp
°C
Dew
Point
°C
Rel
Hum
%
Delta-T

°C
Wind Press
QNH
hPa
Press
MSL
hPa
Rain
since
9 am
mm
Dir
 
Spd
km/h
Gust
km/h
Spd
kts
Gust
kts
27/11:30pm 6.3 4.2 5.9 97 0.2 NE 6 7 3 4 1019.6 1019.6 0.0
27/11:00pm 7.2 5.1 6.6 96 0.3 NE 7 9 4 5 1019.6 1019.6 0.0
27/10:30pm 7.3 4.8 6.7 96 0.3 NE 9 11 5 6 1019.7 1019.7 0.0
27/10:00pm 7.4 5.3 6.5 94 0.4 ENE 7 9 4 5 1019.9 1019.9 0.0
27/09:30pm 7.9 6.5 7.3 96 0.3 NE 4 7 2 4 1020.0 1020.0 0.0
27/09:00pm 7.9 7.3 7.3 96 0.3 CALM 0 0 0 0 1020.0 1020.0 0.0
27/08:30pm 8.4 7.8 7.6 95 0.4 CALM 0 0 0 0 1019.8 1019.8 0.0
27/08:00pm 9.5 9.0 7.9 90 0.8 CALM 0 0 0 0 1019.8 1019.8 0.0
27/07:30pm 10.0 8.5 8.4 90 0.8 ESE 6 9 3 5 1019.7 1019.7 0.0
27/07:00pm 10.8 10.6 9.0 89 0.9 CALM 0 0 0 0 1019.6 1019.6 0.0
27/06:30pm 11.6 11.4 9.0 84 1.3 CALM 0 0 0 0 1019.7 1019.7 0.0
27/06:00pm 13.3 11.8 9.2 76 2.1 SW 7 7 4 4 1019.6 1019.6 0.0
27/05:30pm 14.7 12.8 9.1 69 2.9 SW 9 11 5 6 1019.4 1019.4 0.0
27/05:00pm 16.1 14.6 9.2 63 3.6 SW 7 11 4 6 1019.3 1019.3 0.0
27/04:30pm 17.2 15.3 9.0 58 4.3 WSW 9 13 5 7 1019.3 1019.3 0.0
27/04:00pm 17.5 15.0 9.6 60 4.2 SW 13 19 7 10 1019.3 1019.3 0.0
27/03:30pm 17.9 15.3 9.4 57 4.5 WSW 13 20 7 11 1019.4 1019.4 0.0
27/03:00pm 18.4 15.9 9.8 57 4.6 W 13 19 7 10 1019.3 1019.3 0.0
27/02:30pm 18.0 15.4 9.3 56 4.6 W 13 20 7 11 1019.5 1019.5 0.0
27/02:00pm 18.4 14.8 8.2 51 5.3 WSW 17 24 9 13 1019.5 1019.5 0.0
27/01:30pm 18.0 14.0 8.4 53 5.0 W 19 24 10 13 1019.5 1019.5 0.0
27/01:00pm 18.4 15.3 8.7 53 5.1 W 15 22 8 12 1019.8 1019.8 0.0
27/12:30pm 18.3 15.8 9.7 57 4.6 WSW 13 20 7 11 1020.1 1020.1 0.0
27/12:00pm 17.9 15.7 10.9 63 3.8 SW 13 19 7 10 1020.6 1020.6 0.0
27/11:30am 17.3 14.0 9.6 60 4.1 W 17 20 9 11 1021.0 1021.0 0.0
27/11:00am 16.9 14.0 9.5 61 3.9 WNW 15 20 8 11 1021.4 1021.4 0.0
27/10:30am 16.7 13.4 9.5 62 3.8 WNW 17 24 9 13 1021.4 1021.4 0.0
27/10:00am 16.1 12.7 9.2 63 3.6 WNW 17 22 9 12 1021.3 1021.3 0.0
27/09:30am 15.2 11.8 9.2 67 3.1 WNW 17 28 9 15 1021.1 1021.1 0.0
27/09:00am 14.2 11.2 9.4 73 2.5 WNW 15 19 8 10 1021.2 1021.2 0.4
27/08:30am 12.0 10.6 9.5 85 1.3 NW 7 9 4 5 1021.5 1021.5 0.4
27/08:00am 11.2 11.1 9.6 90 0.8 CALM 0 6 0 3 1021.6 1021.7 0.4
27/07:30am 9.0 8.3 8.6 97 0.2 NE 2 6 1 3 1021.4 1021.4 0.4
27/07:00am 9.2 7.7 8.6 96 0.3 ENE 6 7 3 4 1021.1 1021.1 0.4
27/06:30am 8.9 7.4 8.5 97 0.2 ENE 6 7 3 4 1020.9 1020.9 0.4
27/06:00am 8.2 6.6 7.8 97 0.2 NE 6 7 3 4 1020.8 1020.8 0.4
27/05:30am 7.7 5.7 7.3 97 0.2 ENE 7 7 4 4 1020.5 1020.5 0.4
27/05:00am 8.4 6.6 8.0 97 0.2 NE 7 9 4 5 1020.6 1020.6 0.4
27/04:30am 8.5 8.0 7.9 96 0.3 CALM 0 7 0 4 1020.6 1020.6 0.4
27/04:00am 8.8 7.2 8.2 96 0.3 E 6 6 3 3 1020.4 1020.4 0.4
27/03:30am 9.6 8.3 9.2 97 0.2 ENE 6 7 3 4 1020.5 1020.5 0.4
27/03:00am 10.3 9.1 9.7 96 0.3 NE 6 7 3 4 1020.8 1020.8 0.4
27/02:30am 10.8 9.7 10.0 95 0.4 NE 6 7 3 4 1020.8 1020.8 0.4
27/02:00am 11.1 10.1 10.3 95 0.4 ENE 6 6 3 3 1021.2 1021.2 0.4
27/01:30am 11.4 10.4 10.4 94 0.5 ENE 6 9 3 5 1021.1 1021.1 0.4
27/01:00am 11.9 11.0 10.6 92 0.7 ENE 6 9 3 5 1021.4 1021.4 0.4
27/12:30am 11.9 10.4 10.6 92 0.7 ESE 9 11 5 6 1021.6 1021.7 0.4
27/12:00am 12.3 10.8 10.6 89 0.9 N 9 11 5 6 1021.6 1021.7 0.4
 
Date/Time
CST
Tmp

°C
App
Tmp
°C
Dew
Point
°C
Rel
Hum
%
Delta-T

°C
Wind Press
QNH
hPa
Press
MSL
hPa
Rain
since
9 am
mm
Dir
 
Spd
km/h
Gust
km/h
Spd
kts
Gust
kts
26/11:30pm 12.9 11.8 10.6 86 1.2 WSW 7 9 4 5 1021.9 1021.9 0.4
26/11:00pm 13.3 11.0 10.4 82 1.5 WNW 13 17 7 9 1022.3 1022.3 0.4
26/10:30pm 12.5 11.6 10.8 89 0.9 SSW 6 7 3 4 1022.3 1022.3 0.0
26/10:00pm 12.6 12.8 10.5 87 1.1 CALM 0 0 0 0 1022.4 1022.4 0.0

Latest Capital City Observations: Canberra | Sydney | Melbourne | Brisbane | Adelaide | Perth | Hobart | Darwin

Other Formats:

Comma delimited format used in spreadsheet applications
http://www.bom.gov.au/fwo/IDS60901/IDS60901.94681.axf

JavaScript Object Notation format (JSON) in row-major order
http://www.bom.gov.au/fwo/IDS60901/IDS60901.94681.json